Time;durP1;ratioP1;P1;durP2;ratioP2;P2;SDS_P1;SDS_P2;PMS_P1;PMS_P2;Temp;Humidity;BMP_temperature;BMP_pressure;BME280_temperature;BME280_humidity;BME280_pressure;Samples;Min_cycle;Max_cycle;Signal;HPM_P1;HPM_P2
2022/03/31 00:00:20;;;;;;;39.92;23.55;;;10.10;83.80;;;;;;5096524;28;20503;-13
2022/03/31 00:02:47;;;;;;;41.58;20.90;;;10.10;83.70;;;;;;5096047;28;20064;-12
2022/03/31 00:05:13;;;;;;;33.17;19.55;;;10.00;83.30;;;;;;5096290;28;20455;-12
2022/03/31 00:07:50;;;;;;;35.40;20.98;;;10.10;82.90;;;;;;5096163;28;20053;-11
2022/03/31 00:10:34;;;;;;;36.03;19.17;;;10.10;82.90;;;;;;5096407;28;20138;-12
2022/03/31 00:13:02;;;;;;;37.05;20.92;;;10.10;82.90;;;;;;5096123;28;20051;-12
2022/03/31 00:15:29;;;;;;;38.97;21.15;;;10.10;83.00;;;;;;5096427;28;20102;-13
2022/03/31 00:17:58;;;;;;;49.65;24.95;;;10.10;82.70;;;;;;5096042;28;20020;-12
2022/03/31 00:20:25;;;;;;;41.30;22.48;;;10.10;83.40;;;;;;5095729;28;20028;-12
2022/03/31 00:22:51;;;;;;;38.70;20.52;;;10.10;83.60;;;;;;5097081;28;20035;-13
2022/03/31 00:25:17;;;;;;;44.63;24.67;;;10.10;84.00;;;;;;5095985;28;20047;-12
2022/03/31 00:27:43;;;;;;;41.17;22.38;;;10.10;84.50;;;;;;5095800;28;20115;-12
2022/03/31 00:30:11;;;;;;;42.80;21.88;;;10.00;84.60;;;;;;5094554;28;20128;-11
2022/03/31 00:32:38;;;;;;;44.08;23.02;;;10.00;83.80;;;;;;5096034;28;20032;-12
2022/03/31 00:35:05;;;;;;;38.20;21.42;;;10.00;83.30;;;;;;5095719;28;20095;-12
2022/03/31 00:37:31;;;;;;;32.25;18.55;;;10.00;83.40;;;;;;5095903;28;20024;-12
2022/03/31 00:39:57;;;;;;;34.08;19.52;;;10.00;83.10;;;;;;5094617;28;20388;-12
2022/03/31 00:42:23;;;;;;;41.45;21.25;;;10.00;82.90;;;;;;5096015;28;20533;-13
2022/03/31 00:44:50;;;;;;;33.47;18.85;;;10.10;82.90;;;;;;5095880;28;20024;-13
2022/03/31 00:47:17;;;;;;;32.45;18.55;;;10.10;82.80;;;;;;5095424;28;20043;-11
2022/03/31 00:49:44;;;;;;;41.45;22.73;;;10.10;83.10;;;;;;5095102;28;20024;-12
2022/03/31 00:52:11;;;;;;;33.58;17.95;;;10.10;83.40;;;;;;5095399;28;20562;-12
2022/03/31 00:54:39;;;;;;;28.00;16.10;;;10.10;83.30;;;;;;5095219;28;20216;-12
2022/03/31 00:57:10;;;;;;;30.83;16.42;;;10.10;83.20;;;;;;5095289;28;20020;-12
2022/03/31 00:59:37;;;;;;;30.05;15.00;;;10.10;83.00;;;;;;5095309;28;20476;-13
2022/03/31 01:02:04;;;;;;;25.15;15.55;;;10.10;83.00;;;;;;5095181;28;20052;-13
2022/03/31 01:04:31;;;;;;;26.08;15.38;;;10.10;82.70;;;;;;5093666;28;20028;-14
2022/03/31 01:06:57;;;;;;;30.83;16.23;;;10.10;82.70;;;;;;5095324;28;20115;-14
2022/03/31 01:09:23;;;;;;;28.50;14.93;;;10.10;83.00;;;;;;5095055;28;20031;-14
2022/03/31 01:11:49;;;;;;;32.20;20.02;;;10.10;83.10;;;;;;5095016;28;20024;-14
2022/03/31 01:14:16;;;;;;;41.85;22.52;;;10.10;83.20;;;;;;5094986;28;20130;-15
2022/03/31 01:16:42;;;;;;;36.42;18.38;;;10.10;83.10;;;;;;5094763;28;20020;-14
2022/03/31 01:19:10;;;;;;;32.15;18.70;;;10.10;83.00;;;;;;5094982;28;20547;-13
2022/03/31 01:21:38;;;;;;;39.05;20.83;;;10.00;82.90;;;;;;5094896;28;20399;-14
2022/03/31 01:24:10;;;;;;;39.17;21.42;;;10.00;83.40;;;;;;5094773;28;20115;-15
2022/03/31 01:26:38;;;;;;;34.55;19.70;;;9.90;83.70;;;;;;5094495;28;20083;-15
2022/03/31 01:29:05;;;;;;;34.58;19.83;;;9.90;83.80;;;;;;5095114;28;20107;-15
2022/03/31 01:31:32;;;;;;;46.05;23.25;;;9.90;83.70;;;;;;5094936;28;20028;-15
2022/03/31 01:33:58;;;;;;;37.22;19.23;;;9.90;83.70;;;;;;5094869;28;20115;-15
2022/03/31 01:36:26;;;;;;;37.53;22.08;;;9.90;83.80;;;;;;5094383;28;20024;-16
2022/03/31 01:38:53;;;;;;;35.08;20.20;;;9.90;83.60;;;;;;5094752;28;20031;-15
2022/03/31 01:41:19;;;;;;;39.65;21.02;;;9.80;83.90;;;;;;5094761;28;20024;-15
2022/03/31 01:43:46;;;;;;;32.97;19.40;;;9.80;84.10;;;;;;5094550;28;20032;-14
2022/03/31 01:46:13;;;;;;;44.65;24.20;;;9.80;84.80;;;;;;5094230;28;20487;-15
2022/03/31 01:48:39;;;;;;;36.35;20.70;;;9.80;84.30;;;;;;5095024;28;20031;-15
2022/03/31 01:51:05;;;;;;;46.70;24.52;;;9.80;84.50;;;;;;5094460;28;20077;-15
2022/03/31 01:53:33;;;;;;;47.28;24.98;;;9.80;84.80;;;;;;5094218;28;20028;-15
2022/03/31 01:55:59;;;;;;;52.30;24.80;;;9.80;84.60;;;;;;5094468;28;20046;-14
2022/03/31 01:58:25;;;;;;;52.45;26.25;;;9.80;84.60;;;;;;5094530;28;20020;-14
2022/03/31 02:00:50;;;;;;;48.78;24.83;;;9.70;84.40;;;;;;5094737;28;20044;-14
2022/03/31 02:03:17;;;;;;;53.72;27.02;;;9.70;84.70;;;;;;5093352;28;20056;-15
2022/03/31 02:05:43;;;;;;;51.78;26.42;;;9.70;86.40;;;;;;5094206;28;20020;-16
2022/03/31 02:08:09;;;;;;;54.95;25.23;;;9.60;86.20;;;;;;5093984;28;20033;-15
2022/03/31 02:10:35;;;;;;;53.90;25.42;;;9.70;86.60;;;;;;5093658;28;20020;-14
2022/03/31 02:13:01;;;;;;;51.42;25.20;;;9.60;86.20;;;;;;5094162;28;20146;-14
2022/03/31 02:15:31;;;;;;;53.65;26.55;;;9.60;86.40;;;;;;5093812;28;20535;-14
2022/03/31 02:17:57;;;;;;;49.85;23.33;;;9.60;86.30;;;;;;5093775;28;20038;-14
2022/03/31 02:20:24;;;;;;;43.55;22.45;;;9.60;86.50;;;;;;5093388;28;20020;-14
2022/03/31 02:22:51;;;;;;;42.50;20.83;;;9.60;86.00;;;;;;5093654;28;20387;-15
2022/03/31 02:25:17;;;;;;;44.03;23.83;;;9.60;86.10;;;;;;5092448;28;20480;-14
2022/03/31 02:27:43;;;;;;;40.13;20.52;;;9.60;86.00;;;;;;5093662;28;20361;-14
2022/03/31 02:30:10;;;;;;;51.55;23.55;;;9.60;86.00;;;;;;5092687;28;20055;-14
2022/03/31 02:32:37;;;;;;;50.47;25.20;;;9.60;87.30;;;;;;5093344;28;20036;-15
2022/03/31 02:35:06;;;;;;;56.03;23.45;;;9.60;87.40;;;;;;5093724;28;20034;-14
2022/03/31 02:37:32;;;;;;;44.80;20.85;;;9.60;87.00;;;;;;5093795;28;20093;-14
2022/03/31 02:39:58;;;;;;;48.65;22.00;;;9.60;86.60;;;;;;5093649;28;20410;-14
2022/03/31 02:42:24;;;;;;;55.03;22.83;;;9.60;87.30;;;;;;5093536;28;20100;-14
2022/03/31 02:44:50;;;;;;;52.63;23.25;;;9.60;87.70;;;;;;5093689;28;20484;-14
2022/03/31 02:47:16;;;;;;;45.58;22.80;;;9.60;88.10;;;;;;5093506;28;20384;-14
2022/03/31 02:49:43;;;;;;;47.03;21.13;;;9.60;88.30;;;;;;5093343;28;20028;-15
2022/03/31 02:52:09;;;;;;;50.35;22.15;;;9.60;88.20;;;;;;5093555;28;20020;-14
2022/03/31 02:57:19;;;;;;;47.78;19.95;;;9.50;87.70;;;;;;5093898;28;20035;-14
2022/03/31 02:59:46;;;;;;;43.47;20.23;;;9.60;88.00;;;;;;5093822;28;20024;-13
2022/03/31 03:02:12;;;;;;;44.38;19.63;;;9.60;88.70;;;;;;5092730;28;20044;-13
2022/03/31 03:04:38;;;;;;;47.05;20.10;;;9.50;88.10;;;;;;5093047;28;20169;-15
2022/03/31 03:07:05;;;;;;;38.05;18.65;;;9.60;88.90;;;;;;5093070;28;20043;-14
2022/03/31 03:09:31;;;;;;;39.83;19.38;;;9.50;88.10;;;;;;5093341;28;20476;-14
2022/03/31 03:11:57;;;;;;;44.97;22.25;;;9.50;87.50;;;;;;5092252;28;20020;-14
2022/03/31 03:14:23;;;;;;;53.92;25.85;;;9.50;87.90;;;;;;5094440;28;20392;-15
2022/03/31 03:16:49;;;;;;;54.40;25.60;;;9.50;88.50;;;;;;5097299;28;20052;-14
2022/03/31 03:19:15;;;;;;;51.20;26.33;;;9.50;88.60;;;;;;5097431;28;20124;-14
2022/03/31 03:21:40;;;;;;;56.95;26.08;;;9.50;88.10;;;;;;5096989;28;20031;-13
2022/03/31 03:24:07;;;;;;;55.45;25.55;;;9.50;87.90;;;;;;5097446;28;20028;-13
2022/03/31 03:26:33;;;;;;;52.58;25.33;;;9.50;87.80;;;;;;5097062;28;20043;-13
2022/03/31 03:29:00;;;;;;;56.80;28.30;;;9.50;87.50;;;;;;5096960;28;20491;-13
2022/03/31 03:31:26;;;;;;;51.20;26.10;;;9.50;88.20;;;;;;5097314;28;20052;-13
2022/03/31 03:33:52;;;;;;;57.75;26.52;;;9.50;88.10;;;;;;5097240;28;20482;-13
2022/03/31 03:36:17;;;;;;;48.22;24.52;;;9.50;87.40;;;;;;5097295;28;20024;-14
2022/03/31 03:38:44;;;;;;;46.95;23.80;;;9.50;87.40;;;;;;5097027;28;20395;-15
2022/03/31 03:41:12;;;;;;;57.92;26.55;;;9.60;87.40;;;;;;5097087;28;20024;-13
2022/03/31 03:43:42;;;;;;;46.53;22.23;;;9.60;87.10;;;;;;5097027;28;20032;-14
2022/03/31 03:46:09;;;;;;;48.53;23.38;;;9.60;87.10;;;;;;5096595;28;20028;-13
2022/03/31 03:48:35;;;;;;;48.72;25.38;;;9.60;87.40;;;;;;5096720;28;20020;-13
2022/03/31 03:51:02;;;;;;;59.88;26.95;;;9.60;87.60;;;;;;5095198;28;20057;-12
2022/03/31 03:53:29;;;;;;;50.60;24.63;;;9.60;87.20;;;;;;5096791;28;20042;-13
2022/03/31 03:55:55;;;;;;;47.00;22.75;;;9.60;87.30;;;;;;5096421;28;20086;-12
2022/03/31 03:58:21;;;;;;;48.85;24.17;;;9.60;87.10;;;;;;5096307;28;20024;-14
2022/03/31 04:00:47;;;;;;;52.97;26.27;;;9.60;87.00;;;;;;5096906;28;20106;-14
2022/03/31 04:03:12;;;;;;;49.67;25.27;;;9.70;87.00;;;;;;5096168;28;20048;-13
2022/03/31 04:05:38;;;;;;;50.83;26.67;;;9.70;86.90;;;;;;5096557;28;20028;-14
2022/03/31 04:08:05;;;;;;;51.50;24.05;;;9.70;87.30;;;;;;5096297;28;20433;-14
2022/03/31 04:10:34;;;;;;;49.70;25.92;;;9.70;86.80;;;;;;5096077;28;20016;-13
2022/03/31 04:13:00;;;;;;;50.75;26.65;;;9.70;87.10;;;;;;5096155;28;20113;-14
2022/03/31 04:15:27;;;;;;;49.88;24.33;;;9.70;86.80;;;;;;5094893;28;20400;-15
2022/03/31 04:17:54;;;;;;;46.97;24.88;;;9.70;86.90;;;;;;5096648;28;20024;-13
2022/03/31 04:20:20;;;;;;;43.00;22.80;;;9.70;87.10;;;;;;5096031;28;20036;-14
2022/03/31 04:22:45;;;;;;;46.70;23.50;;;9.70;87.10;;;;;;5096326;28;20024;-14
2022/03/31 04:25:12;;;;;;;39.67;21.80;;;9.70;87.00;;;;;;5095614;28;20476;-14
2022/03/31 04:27:39;;;;;;;48.80;23.27;;;9.70;87.10;;;;;;5095845;28;20076;-14
2022/03/31 04:30:10;;;;;;;34.75;20.05;;;9.70;87.00;;;;;;5096966;28;20035;-14
2022/03/31 04:32:36;;;;;;;34.08;20.65;;;9.70;87.00;;;;;;5095663;28;20448;-14
2022/03/31 04:35:03;;;;;;;53.15;25.80;;;9.70;86.90;;;;;;5095649;28;20119;-14
2022/03/31 04:37:28;;;;;;;43.33;20.73;;;9.80;86.90;;;;;;5094449;28;20054;-15
2022/03/31 04:39:54;;;;;;;44.80;21.80;;;9.80;86.80;;;;;;5095621;28;20028;-14
2022/03/31 04:42:20;;;;;;;37.45;20.00;;;9.80;86.90;;;;;;5095501;28;20028;-15
2022/03/31 04:44:47;;;;;;;34.38;18.38;;;9.80;86.80;;;;;;5095524;28;20433;-14
2022/03/31 04:47:13;;;;;;;35.35;20.00;;;9.80;86.80;;;;;;5095441;28;20035;-14
2022/03/31 04:49:39;;;;;;;39.10;20.98;;;9.80;86.80;;;;;;5095654;28;20032;-14
2022/03/31 04:52:05;;;;;;;41.28;21.08;;;9.80;86.80;;;;;;5094252;28;20441;-13
2022/03/31 04:54:31;;;;;;;42.55;21.55;;;9.80;86.90;;;;;;5095534;28;20388;-14
2022/03/31 04:56:57;;;;;;;33.88;18.02;;;9.80;86.90;;;;;;5095299;28;20479;-14
2022/03/31 04:59:23;;;;;;;38.70;20.52;;;9.80;86.90;;;;;;5095282;28;20142;-14
2022/03/31 05:01:49;;;;;;;31.33;18.10;;;9.80;86.90;;;;;;5095221;28;20059;-13
2022/03/31 05:04:16;;;;;;;37.50;18.98;;;9.80;86.90;;;;;;5094983;28;20373;-14
2022/03/31 05:06:42;;;;;;;45.65;23.48;;;9.90;86.80;;;;;;5095084;28;20039;-14
2022/03/31 05:09:08;;;;;;;41.70;21.55;;;9.90;86.80;;;;;;5095249;28;20032;-14
2022/03/31 05:11:34;;;;;;;38.70;20.17;;;9.80;86.80;;;;;;5095326;28;20028;-13
2022/03/31 05:14:00;;;;;;;40.75;22.13;;;9.90;86.90;;;;;;5095326;28;20027;-15
2022/03/31 05:16:26;;;;;;;40.33;22.13;;;9.90;87.00;;;;;;5093509;28;20021;-15
2022/03/31 05:18:51;;;;;;;36.45;20.67;;;9.90;86.80;;;;;;5095361;28;20020;-15
2022/03/31 05:21:17;;;;;;;40.20;22.17;;;9.90;86.90;;;;;;5095013;28;20058;-14
2022/03/31 05:23:43;;;;;;;40.15;19.33;;;9.90;87.10;;;;;;5094791;28;20028;-14
2022/03/31 05:26:09;;;;;;;36.08;18.58;;;9.90;86.80;;;;;;5094952;28;20035;-14
2022/03/31 05:28:34;;;;;;;36.15;19.83;;;9.90;87.00;;;;;;5094467;28;20024;-14
2022/03/31 05:31:00;;;;;;;33.13;19.65;;;9.90;86.80;;;;;;5094956;28;20103;-13
2022/03/31 05:33:26;;;;;;;36.03;19.80;;;9.90;86.70;;;;;;5094657;28;20369;-13
2022/03/31 05:35:52;;;;;;;38.28;20.30;;;9.90;86.70;;;;;;5094230;28;20119;-14
2022/03/31 05:38:18;;;;;;;53.00;26.58;;;10.00;86.70;;;;;;5093635;28;20024;-14
2022/03/31 05:40:43;;;;;;;50.58;26.15;;;10.00;86.60;;;;;;5094442;28;20058;-12
2022/03/31 05:43:09;;;;;;;40.70;22.38;;;9.90;86.60;;;;;;5094457;28;20077;-12
2022/03/31 05:45:35;;;;;;;43.70;20.48;;;9.90;86.60;;;;;;5094574;28;20028;-12
2022/03/31 05:48:01;;;;;;;42.75;22.23;;;9.90;86.70;;;;;;5094524;28;20089;-13
2022/03/31 05:50:27;;;;;;;46.25;24.15;;;9.90;86.90;;;;;;5093931;28;20105;-13
2022/03/31 05:53:53;;;;;;;36.72;21.05;;;10.00;87.20;;;;;;5108837;27;20838;-12
2022/03/31 05:56:19;;;;;;;37.42;21.48;;;10.00;87.00;;;;;;5110745;28;20032;-13
2022/03/31 05:58:45;;;;;;;36.03;19.95;;;10.10;87.10;;;;;;5111247;28;20106;-13
2022/03/31 06:01:12;;;;;;;37.05;21.92;;;10.10;87.10;;;;;;5110839;28;20030;-13
2022/03/31 06:03:38;;;;;;;43.33;23.08;;;10.10;87.10;;;;;;5111144;28;20023;-13
2022/03/31 06:06:04;;;;;;;43.05;23.05;;;10.10;87.10;;;;;;5110698;28;20028;-12
2022/03/31 06:08:30;;;;;;;44.25;24.77;;;10.20;86.90;;;;;;5110569;28;20065;-12
2022/03/31 06:10:56;;;;;;;43.63;23.58;;;10.20;86.80;;;;;;5111086;28;20024;-12
2022/03/31 06:13:22;;;;;;;43.55;24.73;;;10.20;87.00;;;;;;5110585;28;20024;-12
2022/03/31 06:15:48;;;;;;;44.92;24.05;;;10.20;86.80;;;;;;5110895;28;20035;-12
2022/03/31 06:18:15;;;;;;;35.33;21.73;;;10.30;86.90;;;;;;5110659;28;20028;-12
2022/03/31 06:20:41;;;;;;;40.85;23.52;;;10.30;86.80;;;;;;5110418;28;20081;-12
2022/03/31 06:23:06;;;;;;;45.15;24.83;;;10.30;86.70;;;;;;5110713;28;20020;-13
2022/03/31 06:25:32;;;;;;;46.28;24.85;;;10.40;86.70;;;;;;5110769;28;20024;-13
2022/03/31 06:27:58;;;;;;;41.75;23.23;;;10.40;86.60;;;;;;5110420;28;20506;-12
2022/03/31 06:30:24;;;;;;;50.35;27.90;;;10.40;86.80;;;;;;5110415;28;20024;-12
2022/03/31 06:32:50;;;;;;;36.03;20.88;;;10.50;86.80;;;;;;5110673;28;20590;-12
2022/03/31 06:35:16;;;;;;;41.17;23.90;;;10.50;86.60;;;;;;5110449;28;20110;-12
2022/03/31 06:37:44;;;;;;;43.85;25.20;;;10.60;86.60;;;;;;5110432;28;20023;-12
2022/03/31 06:40:12;;;;;;;41.55;21.33;;;10.60;86.50;;;;;;5110257;28;20031;-12
2022/03/31 06:42:40;;;;;;;42.90;24.20;;;10.70;86.50;;;;;;5110106;28;20396;-12
2022/03/31 06:45:08;;;;;;;39.25;22.73;;;10.70;86.60;;;;;;5110518;28;20024;-11
2022/03/31 06:47:38;;;;;;;40.53;22.95;;;10.80;86.70;;;;;;5110005;28;20020;-12
2022/03/31 06:50:05;;;;;;;40.67;23.40;;;10.80;86.30;;;;;;5109850;28;20593;-13
2022/03/31 06:52:31;;;;;;;54.78;30.38;;;10.80;86.20;;;;;;5109298;28;20054;-12
2022/03/31 06:54:57;;;;;;;54.38;29.42;;;10.90;86.60;;;;;;5108631;28;20118;-12
2022/03/31 06:57:23;;;;;;;43.65;25.70;;;10.90;87.10;;;;;;5110649;28;20028;-12
2022/03/31 06:59:50;;;;;;;37.35;23.40;;;10.90;86.90;;;;;;5109747;28;20110;-12
2022/03/31 07:02:16;;;;;;;61.83;32.25;;;10.90;86.80;;;;;;5109892;28;20107;-12
2022/03/31 07:04:42;;;;;;;40.88;24.60;;;10.90;87.30;;;;;;5098490;28;20115;-12
2022/03/31 07:07:08;;;;;;;47.00;27.70;;;10.90;86.90;;;;;;5096073;28;20024;-13
2022/03/31 07:09:34;;;;;;;46.63;28.40;;;11.00;87.10;;;;;;5096031;28;20441;-13
2022/03/31 07:12:00;;;;;;;57.17;33.35;;;11.00;86.80;;;;;;5096088;28;20078;-12
2022/03/31 07:14:26;;;;;;;48.70;27.73;;;11.00;86.80;;;;;;5096053;28;20050;-11
2022/03/31 07:16:52;;;;;;;62.75;32.50;;;11.00;86.20;;;;;;5096185;28;20020;-11
2022/03/31 07:19:18;;;;;;;57.15;29.88;;;11.00;86.40;;;;;;5096135;28;20027;-12
2022/03/31 07:21:44;;;;;;;64.03;32.10;;;10.90;86.30;;;;;;5095957;28;20024;-11
2022/03/31 07:24:10;;;;;;;61.67;31.80;;;10.90;86.50;;;;;;5095739;28;20369;-12
2022/03/31 07:26:36;;;;;;;61.80;31.95;;;10.80;86.40;;;;;;5095855;28;20024;-11
2022/03/31 07:29:03;;;;;;;43.75;26.48;;;10.80;86.70;;;;;;5096460;28;20020;-12
2022/03/31 07:31:29;;;;;;;41.70;22.25;;;10.80;86.90;;;;;;5096372;28;20463;-11
2022/03/31 07:33:56;;;;;;;55.45;30.05;;;10.80;87.00;;;;;;5095882;28;20020;-12
2022/03/31 07:36:22;;;;;;;53.92;28.45;;;10.80;86.80;;;;;;5095230;28;20019;-11
2022/03/31 07:38:48;;;;;;;54.92;28.58;;;10.80;86.60;;;;;;5095739;28;20020;-12
2022/03/31 07:41:15;;;;;;;58.80;34.13;;;10.80;86.50;;;;;;5095635;28;20027;-12
2022/03/31 07:43:41;;;;;;;52.53;29.10;;;10.80;86.40;;;;;;5095672;28;20094;-11
2022/03/31 07:46:07;;;;;;;49.70;28.60;;;10.90;86.30;;;;;;5095850;28;20036;-12
2022/03/31 07:48:33;;;;;;;53.85;28.38;;;10.90;86.50;;;;;;5095377;28;20046;-11
2022/03/31 07:50:59;;;;;;;60.22;32.15;;;10.90;86.50;;;;;;5095435;28;20027;-12
2022/03/31 07:53:26;;;;;;;56.10;31.52;;;10.90;86.70;;;;;;5094876;28;20126;-11
2022/03/31 07:55:54;;;;;;;61.88;33.42;;;11.00;86.80;;;;;;5095305;28;20369;-11
2022/03/31 07:58:21;;;;;;;51.40;27.48;;;11.00;86.80;;;;;;5095124;28;20032;-12
2022/03/31 08:00:50;;;;;;;48.08;28.08;;;11.00;86.40;;;;;;5095008;28;20107;-12
2022/03/31 08:03:20;;;;;;;51.30;29.92;;;11.10;86.40;;;;;;5095574;28;20097;-12
2022/03/31 08:05:46;;;;;;;41.97;25.33;;;11.20;86.20;;;;;;5094865;28;20048;-11
2022/03/31 08:08:13;;;;;;;59.08;30.15;;;11.20;86.20;;;;;;5094682;28;20020;-11
2022/03/31 08:10:39;;;;;;;54.13;28.10;;;11.30;86.50;;;;;;5095863;28;20044;-11
2022/03/31 08:13:05;;;;;;;52.92;26.98;;;11.40;85.70;;;;;;5094737;28;20500;-10
2022/03/31 08:15:31;;;;;;;49.97;27.75;;;11.40;85.50;;;;;;5093718;28;20387;-11
2022/03/31 08:17:58;;;;;;;57.80;27.58;;;11.50;85.80;;;;;;5094691;28;20035;-11
2022/03/31 08:20:25;;;;;;;51.13;27.05;;;11.60;85.20;;;;;;5094648;28;20436;-11
2022/03/31 08:22:51;;;;;;;44.97;25.27;;;11.60;85.40;;;;;;5095119;28;20020;-11
2022/03/31 08:25:17;;;;;;;46.83;25.08;;;11.60;84.30;;;;;;5094940;28;20031;-12
2022/03/31 08:27:45;;;;;;;45.50;24.92;;;11.70;84.60;;;;;;5094516;28;20579;-11
2022/03/31 08:30:18;;;;;;;48.72;26.90;;;11.70;84.30;;;;;;5094589;28;20024;-10
2022/03/31 08:32:46;;;;;;;44.23;23.97;;;11.60;84.70;;;;;;5094706;28;20361;-12
2022/03/31 08:35:14;;;;;;;43.47;23.88;;;11.60;84.70;;;;;;5094260;28;20254;-11
2022/03/31 08:37:40;;;;;;;48.03;24.00;;;11.80;84.70;;;;;;5093057;28;20032;-11
2022/03/31 08:40:08;;;;;;;40.13;22.30;;;11.90;84.30;;;;;;5094521;28;20028;-11
2022/03/31 08:42:35;;;;;;;35.45;20.00;;;11.90;83.80;;;;;;5094021;28;20024;-11
2022/03/31 08:45:02;;;;;;;43.53;22.35;;;12.00;83.30;;;;;;5094169;28;20020;-11
2022/03/31 08:47:28;;;;;;;38.97;22.38;;;12.00;82.60;;;;;;5094212;28;20066;-11
2022/03/31 08:49:56;;;;;;;41.47;23.88;;;12.00;82.30;;;;;;5094318;28;20090;-10
2022/03/31 08:52:23;;;;;;;42.33;23.60;;;12.00;83.30;;;;;;5093661;28;20052;-11
2022/03/31 08:54:50;;;;;;;37.70;22.45;;;12.00;82.80;;;;;;5092802;28;20036;-11
2022/03/31 08:57:17;;;;;;;34.97;21.13;;;12.10;82.70;;;;;;5094268;28;20036;-11
2022/03/31 08:59:43;;;;;;;39.97;21.50;;;12.30;82.70;;;;;;5094218;28;20052;-11
2022/03/31 09:02:25;;;;;;;40.03;22.45;;;12.40;81.20;;;;;;5094316;28;20384;-11
2022/03/31 09:05:05;;;;;;;42.78;22.45;;;12.40;81.60;;;;;;5093803;28;20031;-11
2022/03/31 09:07:31;;;;;;;41.63;21.13;;;12.60;81.60;;;;;;5094500;28;20032;-10
2022/03/31 09:09:57;;;;;;;39.90;20.92;;;12.70;80.20;;;;;;5093928;28;20035;-10
2022/03/31 09:12:26;;;;;;;37.00;22.42;;;12.90;80.90;;;;;;5093568;28;20024;-11
2022/03/31 09:14:54;;;;;;;42.38;22.65;;;13.00;80.60;;;;;;5093645;28;20062;-11
2022/03/31 09:17:20;;;;;;;39.25;22.20;;;13.10;79.90;;;;;;5093880;28;20036;-10
2022/03/31 09:19:46;;;;;;;33.67;20.10;;;13.00;78.30;;;;;;5093796;28;20156;-10
2022/03/31 09:22:12;;;;;;;35.28;20.33;;;12.90;78.10;;;;;;5093858;28;20027;-10
2022/03/31 09:24:39;;;;;;;39.38;21.73;;;12.90;79.20;;;;;;5093497;28;20024;-10
2022/03/31 09:27:06;;;;;;;39.25;21.40;;;13.00;79.40;;;;;;5093482;28;20496;-10
2022/03/31 09:29:34;;;;;;;32.05;19.42;;;13.10;79.30;;;;;;5093654;28;20057;-10
2022/03/31 09:32:11;;;;;;;37.35;20.48;;;13.30;78.40;;;;;;5093627;28;20036;-11
2022/03/31 09:34:40;;;;;;;35.17;18.60;;;13.40;78.50;;;;;;5093691;28;20027;-9
2022/03/31 09:37:06;;;;;;;31.48;20.92;;;13.50;77.70;;;;;;5093683;28;20032;-10
2022/03/31 09:39:32;;;;;;;32.50;18.52;;;13.60;77.50;;;;;;5093627;28;20030;-10
2022/03/31 09:41:58;;;;;;;27.50;17.27;;;13.80;77.50;;;;;;5093236;28;20111;-11
2022/03/31 09:44:25;;;;;;;28.80;17.23;;;13.90;76.60;;;;;;5093110;28;20107;-10
2022/03/31 09:46:52;;;;;;;29.10;17.13;;;13.90;75.60;;;;;;5093215;28;20093;-10
2022/03/31 09:49:20;;;;;;;28.00;17.58;;;14.00;74.70;;;;;;5093533;28;20027;-11
2022/03/31 09:51:51;;;;;;;31.25;17.20;;;14.10;75.70;;;;;;5093503;28;20135;-10
2022/03/31 09:54:18;;;;;;;27.20;15.25;;;14.40;74.40;;;;;;5093011;28;20023;-10
2022/03/31 09:56:45;;;;;;;24.67;15.65;;;14.70;74.90;;;;;;5093710;28;20024;-10
2022/03/31 09:59:13;;;;;;;31.08;15.90;;;15.00;73.70;;;;;;5093400;28;20028;-11
2022/03/31 10:01:40;;;;;;;27.23;15.02;;;15.30;71.20;;;;;;5093424;28;20055;-10
2022/03/31 10:04:09;;;;;;;25.92;13.65;;;15.50;71.20;;;;;;5093108;28;20038;-10
2022/03/31 10:06:44;;;;;;;20.58;12.88;;;15.60;70.60;;;;;;5092786;28;20479;-11
2022/03/31 10:09:12;;;;;;;23.55;12.65;;;15.90;70.80;;;;;;5093132;28;20067;-10
2022/03/31 10:11:41;;;;;;;15.88;9.15;;;16.30;69.30;;;;;;5092971;28;20516;-11
2022/03/31 10:14:37;;;;;;;16.75;7.32;;;16.50;64.10;;;;;;5092969;28;20032;-10
2022/03/31 10:17:10;;;;;;;15.52;7.63;;;16.60;63.50;;;;;;5093339;28;20046;-11
2022/03/31 10:19:42;;;;;;;13.00;7.45;;;16.60;64.60;;;;;;5092978;28;20086;-11
2022/03/31 10:25:04;;;;;;;13.50;7.63;;;16.60;62.90;;;;;;5093007;28;20043;-10
2022/03/31 10:27:32;;;;;;;14.73;8.05;;;16.70;61.90;;;;;;5092839;28;20557;-11
2022/03/31 10:30:14;;;;;;;14.15;7.57;;;16.60;62.90;;;;;;5092843;28;20028;-12
2022/03/31 10:33:10;;;;;;;14.13;8.38;;;16.60;63.00;;;;;;5092883;28;20028;-11
2022/03/31 10:35:41;;;;;;;15.43;8.00;;;16.70;62.80;;;;;;5030567;28;20124;-12
2022/03/31 10:38:23;;;;;;;15.85;8.15;;;16.70;63.20;;;;;;5030750;28;20521;-11
2022/03/31 10:40:59;;;;;;;18.77;8.23;;;16.70;62.60;;;;;;5034569;28;20044;-11
2022/03/31 10:43:32;;;;;;;13.70;7.50;;;16.70;62.70;;;;;;5034739;28;20025;-11
2022/03/31 10:46:03;;;;;;;12.77;8.43;;;16.90;62.40;;;;;;5034370;28;20029;-12
2022/03/31 10:48:31;;;;;;;15.48;7.50;;;17.00;62.60;;;;;;5034007;28;20029;-12
2022/03/31 10:51:33;;;;;;;12.98;6.18;;;17.20;63.00;;;;;;5017586;28;20521;-12
2022/03/31 10:54:00;;;;;;;16.23;5.43;;;17.40;61.30;;;;;;5032383;28;20065;-12
2022/03/31 10:56:28;;;;;;;13.00;5.25;;;17.50;60.30;;;;;;5033919;28;20549;-11
2022/03/31 10:59:00;;;;;;;8.10;3.95;;;17.60;59.30;;;;;;5034024;28;20129;-12
2022/03/31 11:01:28;;;;;;;9.55;4.03;;;17.50;58.00;;;;;;5033986;28;20025;-11
2022/03/31 11:04:05;;;;;;;10.13;5.30;;;17.40;59.10;;;;;;5034086;28;20029;-11
2022/03/31 11:06:31;;;;;;;10.75;5.07;;;17.50;59.10;;;;;;5033820;28;20036;-11
2022/03/31 11:08:57;;;;;;;10.68;4.55;;;17.40;56.80;;;;;;5033828;28;20025;-11
2022/03/31 11:11:29;;;;;;;11.68;4.85;;;17.20;58.80;;;;;;5050180;28;20032;-11
2022/03/31 11:13:57;;;;;;;8.65;4.78;;;17.20;58.70;;;;;;5095903;28;20051;-11
2022/03/31 11:16:37;;;;;;;11.52;5.28;;;17.10;59.10;;;;;;5095778;28;20030;-11
2022/03/31 11:19:04;;;;;;;9.18;3.83;;;17.00;59.70;;;;;;5096241;28;20495;-12
2022/03/31 11:21:36;;;;;;;6.63;3.60;;;16.90;59.20;;;;;;5095973;28;20039;-12
2022/03/31 11:24:02;;;;;;;9.48;4.25;;;16.90;58.30;;;;;;5096344;28;20027;-11
2022/03/31 11:26:31;;;;;;;9.93;5.30;;;16.90;58.80;;;;;;5095483;28;20036;-11
2022/03/31 11:28:57;;;;;;;12.80;6.55;;;16.90;58.80;;;;;;5096134;28;20476;-12
2022/03/31 11:31:24;;;;;;;10.90;5.45;;;16.70;58.10;;;;;;5095926;28;20043;-11
2022/03/31 11:33:50;;;;;;;9.85;4.78;;;16.60;60.00;;;;;;5095487;28;20035;-11
2022/03/31 11:36:20;;;;;;;10.63;5.18;;;16.40;60.40;;;;;;5094035;28;20480;-10
2022/03/31 11:38:57;;;;;;;7.65;4.50;;;16.30;61.10;;;;;;5095798;28;20484;-11
2022/03/31 11:41:24;;;;;;;7.55;5.00;;;16.20;61.90;;;;;;5095760;28;20077;-12
2022/03/31 11:43:57;;;;;;;8.32;5.13;;;15.90;61.90;;;;;;5096177;28;20484;-11
2022/03/31 11:46:23;;;;;;;10.27;4.72;;;15.70;62.10;;;;;;5095123;28;20031;-11
2022/03/31 11:48:49;;;;;;;8.07;4.43;;;15.40;62.90;;;;;;5095608;28;20024;-12
2022/03/31 11:51:15;;;;;;;10.75;5.70;;;15.30;63.70;;;;;;5095057;28;20568;-12
2022/03/31 11:53:49;;;;;;;10.85;5.38;;;15.20;64.00;;;;;;5094943;28;20083;-11
2022/03/31 11:56:25;;;;;;;9.10;4.35;;;15.10;64.60;;;;;;5095033;28;20031;-11
2022/03/31 11:58:57;;;;;;;6.93;4.00;;;15.00;65.40;;;;;;5095159;28;20476;-11
2022/03/31 12:01:43;;;;;;;4.07;2.65;;;14.90;65.60;;;;;;5095391;28;20028;-11
2022/03/31 12:04:20;;;;;;;4.50;2.70;;;14.70;65.40;;;;;;5095312;28;20024;-11
2022/03/31 12:06:48;;;;;;;4.57;2.92;;;14.60;65.40;;;;;;5095177;28;20099;-12
2022/03/31 12:09:14;;;;;;;5.05;2.35;;;14.50;66.40;;;;;;5093722;28;20032;-11
2022/03/31 12:11:41;;;;;;;3.45;2.00;;;14.40;66.60;;;;;;5094802;28;20036;-11
2022/03/31 12:14:10;;;;;;;4.15;1.63;;;14.40;66.20;;;;;;5094866;28;20016;-12
2022/03/31 12:16:49;;;;;;;2.83;1.80;;;14.20;66.40;;;;;;5094608;28;20028;-12
2022/03/31 12:19:16;;;;;;;2.40;1.40;;;14.20;67.00;;;;;;5094792;28;20056;-11
2022/03/31 12:21:47;;;;;;;5.10;2.03;;;14.10;68.00;;;;;;5094697;28;20100;-11
2022/03/31 12:24:14;;;;;;;2.30;1.45;;;14.10;68.60;;;;;;5094312;28;20115;-12
2022/03/31 12:26:55;;;;;;;2.67;1.60;;;14.10;68.40;;;;;;5094583;28;20541;-12
2022/03/31 12:29:23;;;;;;;2.53;1.70;;;13.90;71.10;;;;;;5094855;28;20028;-12
2022/03/31 12:32:06;;;;;;;2.95;1.35;;;13.80;70.40;;;;;;5094701;28;20063;-12
2022/03/31 12:34:34;;;;;;;2.63;1.63;;;13.70;71.60;;;;;;5094311;28;20489;-11
2022/03/31 12:37:01;;;;;;;2.88;1.75;;;13.50;72.00;;;;;;5094605;28;20036;-12
2022/03/31 12:39:28;;;;;;;2.22;1.60;;;13.50;71.90;;;;;;5095191;28;20035;-13
2022/03/31 12:41:57;;;;;;;2.25;1.80;;;13.50;71.70;;;;;;5094865;28;20368;-12